sensor_id;sensor_type;location;lat;lon;timestamp;pressure;altitude;pressure_sealevel;temperature;humidity
46583;BME280;32309;48.858;8.252;2023-03-03T00:01:51;100655.47;;;2.42;74.88
46583;BME280;32309;48.858;8.252;2023-03-03T00:03:51;100649.53;;;2.42;74.61
46583;BME280;32309;48.858;8.252;2023-03-03T00:05:53;100648.66;;;2.41;75.13
46583;BME280;32309;48.858;8.252;2023-03-03T00:07:53;100642.72;;;2.41;73.81
46583;BME280;32309;48.858;8.252;2023-03-03T00:09:53;100642.81;;;2.35;74.85
46583;BME280;32309;48.858;8.252;2023-03-03T00:11:54;100644.53;;;2.34;73.32
46583;BME280;32309;48.858;8.252;2023-03-03T00:13:57;100642.03;;;2.29;75.15
46583;BME280;32309;48.858;8.252;2023-03-03T00:16:09;100641.25;;;2.27;75.22
46583;BME280;32309;48.858;8.252;2023-03-03T00:18:21;100641.28;;;2.26;75.01
46583;BME280;32309;48.858;8.252;2023-03-03T00:20:31;100637.84;;;2.25;74.37
46583;BME280;32309;48.858;8.252;2023-03-03T00:22:37;100643.00;;;2.24;75.67
46583;BME280;32309;48.858;8.252;2023-03-03T00:24:39;100636.16;;;2.24;73.87
46583;BME280;32309;48.858;8.252;2023-03-03T00:26:40;100638.75;;;2.23;74.81
46583;BME280;32309;48.858;8.252;2023-03-03T00:30:44;100641.41;;;2.18;75.20
46583;BME280;32309;48.858;8.252;2023-03-03T00:32:45;100637.16;;;2.17;75.96
46583;BME280;32309;48.858;8.252;2023-03-03T00:34:46;100638.88;;;2.16;75.77
46583;BME280;32309;48.858;8.252;2023-03-03T00:36:46;100642.28;;;2.15;75.11
46583;BME280;32309;48.858;8.252;2023-03-03T00:38:50;100636.34;;;2.13;75.31
46583;BME280;32309;48.858;8.252;2023-03-03T00:40:51;100644.06;;;2.12;75.83
46583;BME280;32309;48.858;8.252;2023-03-03T00:42:52;100635.56;;;2.08;76.03
46583;BME280;32309;48.858;8.252;2023-03-03T00:44:59;100641.56;;;2.09;76.20
46583;BME280;32309;48.858;8.252;2023-03-03T00:47:42;100643.25;;;2.08;76.04
46583;BME280;32309;48.858;8.252;2023-03-03T00:49:29;100639.06;;;2.04;76.22
46583;BME280;32309;48.858;8.252;2023-03-03T00:51:32;100642.47;;;2.03;76.35
46583;BME280;32309;48.858;8.252;2023-03-03T00:53:34;100646.69;;;2.06;76.43
46583;BME280;32309;48.858;8.252;2023-03-03T00:55:34;100645.91;;;2.04;76.17
46583;BME280;32309;48.858;8.252;2023-03-03T00:57:35;100650.16;;;2.05;76.22
46583;BME280;32309;48.858;8.252;2023-03-03T00:59:35;100638.22;;;2.04;76.25
46583;BME280;32309;48.858;8.252;2023-03-03T01:01:35;100650.16;;;2.03;76.38
46583;BME280;32309;48.858;8.252;2023-03-03T01:03:35;100648.47;;;2.02;76.32
46583;BME280;32309;48.858;8.252;2023-03-03T01:05:36;100642.53;;;2.00;76.39
46583;BME280;32309;48.858;8.252;2023-03-03T01:07:36;100639.16;;;1.99;75.96
46583;BME280;32309;48.858;8.252;2023-03-03T01:09:36;100635.72;;;1.99;76.88
46583;BME280;32309;48.858;8.252;2023-03-03T01:11:37;100635.72;;;1.99;76.35
46583;BME280;32309;48.858;8.252;2023-03-03T01:13:37;100640.84;;;1.99;76.26
46583;BME280;32309;48.858;8.252;2023-03-03T01:15:40;100640.88;;;1.97;76.00
46583;BME280;32309;48.858;8.252;2023-03-03T01:17:41;100635.78;;;1.96;76.06
46583;BME280;32309;48.858;8.252;2023-03-03T01:19:42;100632.38;;;1.97;76.17
46583;BME280;32309;48.858;8.252;2023-03-03T01:21:42;100631.50;;;1.96;76.44
46583;BME280;32309;48.858;8.252;2023-03-03T01:23:42;100628.97;;;1.95;76.08
46583;BME280;32309;48.858;8.252;2023-03-03T01:25:43;100631.63;;;1.90;76.63
46583;BME280;32309;48.858;8.252;2023-03-03T01:27:43;100631.63;;;1.89;76.68
46583;BME280;32309;48.858;8.252;2023-03-03T01:29:43;100623.09;;;1.90;76.45
46583;BME280;32309;48.858;8.252;2023-03-03T01:31:43;100626.50;;;1.89;75.96
46583;BME280;32309;48.858;8.252;2023-03-03T01:33:44;100629.06;;;1.89;76.25
46583;BME280;32309;48.858;8.252;2023-03-03T01:35:47;100631.63;;;1.89;76.65
46583;BME280;32309;48.858;8.252;2023-03-03T01:37:48;100628.28;;;1.85;77.06
46583;BME280;32309;48.858;8.252;2023-03-03T01:39:49;100634.28;;;1.84;76.65
46583;BME280;32309;48.858;8.252;2023-03-03T01:41:50;100628.28;;;1.85;76.71
46583;BME280;32309;48.858;8.252;2023-03-03T01:43:50;100635.13;;;1.83;76.85
46583;BME280;32309;48.858;8.252;2023-03-03T01:47:55;100635.16;;;1.81;76.48
46583;BME280;32309;48.858;8.252;2023-03-03T01:50:01;100629.22;;;1.81;77.03
46583;BME280;32309;48.858;8.252;2023-03-03T01:52:10;100628.41;;;1.77;77.13
46583;BME280;32309;48.858;8.252;2023-03-03T01:54:17;100619.03;;;1.76;77.01
46583;BME280;32309;48.858;8.252;2023-03-03T01:56:23;100627.56;;;1.75;76.40
46583;BME280;32309;48.858;8.252;2023-03-03T01:58:25;100626.78;;;1.73;77.14
46583;BME280;32309;48.858;8.252;2023-03-03T02:00:29;100617.41;;;1.72;77.29
46583;BME280;32309;48.858;8.252;2023-03-03T02:02:31;100612.34;;;1.69;77.34
46583;BME280;32309;48.858;8.252;2023-03-03T02:04:33;100612.34;;;1.69;77.38
46583;BME280;32309;48.858;8.252;2023-03-03T02:06:36;100604.69;;;1.69;77.32
46583;BME280;32309;48.858;8.252;2023-03-03T02:10:50;100613.25;;;1.66;77.55
46583;BME280;32309;48.858;8.252;2023-03-03T02:12:52;100616.72;;;1.62;78.05
46583;BME280;32309;48.858;8.252;2023-03-03T02:14:57;100605.63;;;1.62;77.21
46583;BME280;32309;48.858;8.252;2023-03-03T02:16:57;100603.09;;;1.60;76.98
46583;BME280;32309;48.858;8.252;2023-03-03T02:18:58;100601.41;;;1.59;77.83
46583;BME280;32309;48.858;8.252;2023-03-03T02:23:23;100612.56;;;1.55;77.07
46583;BME280;32309;48.858;8.252;2023-03-03T02:25:36;100611.72;;;1.55;77.59
46583;BME280;32309;48.858;8.252;2023-03-03T02:27:40;100610.00;;;1.55;77.16
46583;BME280;32309;48.858;8.252;2023-03-03T02:29:40;100616.00;;;1.53;77.01
46583;BME280;32309;48.858;8.252;2023-03-03T02:31:40;100617.72;;;1.52;76.92
46583;BME280;32309;48.858;8.252;2023-03-03T02:33:42;100616.03;;;1.51;77.36
46583;BME280;32309;48.858;8.252;2023-03-03T02:35:44;100619.41;;;1.52;76.95
46583;BME280;32309;48.858;8.252;2023-03-03T02:37:45;100624.63;;;1.45;76.76
46583;BME280;32309;48.858;8.252;2023-03-03T02:39:45;100627.19;;;1.42;76.86
46583;BME280;32309;48.858;8.252;2023-03-03T02:41:57;100631.47;;;1.42;77.51
46583;BME280;32309;48.858;8.252;2023-03-03T02:44:08;100628.00;;;1.46;77.17
46583;BME280;32309;48.858;8.252;2023-03-03T02:46:10;100632.28;;;1.45;77.03
46583;BME280;32309;48.858;8.252;2023-03-03T02:48:11;100624.63;;;1.45;77.17
46583;BME280;32309;48.858;8.252;2023-03-03T02:50:11;100623.72;;;1.46;76.72
46583;BME280;32309;48.858;8.252;2023-03-03T02:52:11;100626.34;;;1.43;76.90
46583;BME280;32309;48.858;8.252;2023-03-03T02:54:14;100622.94;;;1.44;76.83
46583;BME280;32309;48.858;8.252;2023-03-03T02:56:15;100628.03;;;1.44;76.97
46583;BME280;32309;48.858;8.252;2023-03-03T02:58:15;100632.38;;;1.39;76.98
46583;BME280;32309;48.858;8.252;2023-03-03T03:00:15;100638.41;;;1.33;76.66
46583;BME280;32309;48.858;8.252;2023-03-03T03:02:16;100641.09;;;1.24;75.97
46583;BME280;32309;48.858;8.252;2023-03-03T03:04:19;100642.00;;;1.19;76.50
46583;BME280;32309;48.858;8.252;2023-03-03T03:06:21;100653.09;;;1.14;76.37
46583;BME280;32309;48.858;8.252;2023-03-03T03:08:21;100646.41;;;1.04;76.67
46583;BME280;32309;48.858;8.252;2023-03-03T03:10:21;100645.59;;;1.02;77.02
46583;BME280;32309;48.858;8.252;2023-03-03T03:12:21;100643.88;;;1.03;77.44
46583;BME280;32309;48.858;8.252;2023-03-03T03:14:22;100649.00;;;1.01;77.31
46583;BME280;32309;48.858;8.252;2023-03-03T03:16:22;100649.84;;;1.05;77.36
46583;BME280;32309;48.858;8.252;2023-03-03T03:18:23;100644.72;;;1.05;76.92
46583;BME280;32309;48.858;8.252;2023-03-03T03:20:23;100652.38;;;1.06;77.27
46583;BME280;32309;48.858;8.252;2023-03-03T03:22:24;100646.41;;;1.07;77.10
46583;BME280;32309;48.858;8.252;2023-03-03T03:24:24;100646.44;;;1.06;76.61
46583;BME280;32309;48.858;8.252;2023-03-03T03:26:24;100641.28;;;1.07;77.14
46583;BME280;32309;48.858;8.252;2023-03-03T03:28:25;100642.97;;;1.07;76.60
46583;BME280;32309;48.858;8.252;2023-03-03T03:30:25;100648.97;;;1.06;76.57
46583;BME280;32309;48.858;8.252;2023-03-03T03:32:25;100657.41;;;1.09;76.32
46583;BME280;32309;48.858;8.252;2023-03-03T03:34:26;100654.03;;;1.09;76.12
46583;BME280;32309;48.858;8.252;2023-03-03T03:36:26;100651.50;;;1.07;76.14
46583;BME280;32309;48.858;8.252;2023-03-03T03:38:27;100660.03;;;1.05;76.32
46583;BME280;32309;48.858;8.252;2023-03-03T03:40:28;100655.84;;;1.01;76.05
46583;BME280;32309;48.858;8.252;2023-03-03T03:42:29;100655.88;;;0.96;76.31
46583;BME280;32309;48.858;8.252;2023-03-03T03:44:29;100663.59;;;0.93;76.59
46583;BME280;32309;48.858;8.252;2023-03-03T03:46:29;100656.75;;;0.93;76.02
46583;BME280;32309;48.858;8.252;2023-03-03T03:48:30;100663.59;;;0.91;76.34
46583;BME280;32309;48.858;8.252;2023-03-03T03:50:30;100665.28;;;0.91;76.60
46583;BME280;32309;48.858;8.252;2023-03-03T03:52:31;100666.16;;;0.88;76.21
46583;BME280;32309;48.858;8.252;2023-03-03T03:54:31;100655.94;;;0.90;76.19
46583;BME280;32309;48.858;8.252;2023-03-03T03:56:31;100658.59;;;0.82;76.04
46583;BME280;32309;48.858;8.252;2023-03-03T03:58:31;100668.81;;;0.82;76.64
46583;BME280;32309;48.858;8.252;2023-03-03T04:00:32;100662.88;;;0.80;76.41
46583;BME280;32309;48.858;8.252;2023-03-03T04:02:32;100663.72;;;0.79;76.02
46583;BME280;32309;48.858;8.252;2023-03-03T04:04:32;100661.25;;;0.74;76.29
46583;BME280;32309;48.858;8.252;2023-03-03T04:06:33;100658.72;;;0.73;75.84
46583;BME280;32309;48.858;8.252;2023-03-03T04:08:33;100654.47;;;0.70;76.02
46583;BME280;32309;48.858;8.252;2023-03-03T04:10:33;100651.94;;;0.70;76.72
46583;BME280;32309;48.858;8.252;2023-03-03T04:12:34;100654.47;;;0.69;76.40
46583;BME280;32309;48.858;8.252;2023-03-03T04:14:37;100657.03;;;0.70;76.53
46583;BME280;32309;48.858;8.252;2023-03-03T04:16:37;100659.59;;;0.67;76.37
46583;BME280;32309;48.858;8.252;2023-03-03T04:18:37;100655.38;;;0.63;76.07
46583;BME280;32309;48.858;8.252;2023-03-03T04:20:38;100652.94;;;0.54;76.23
46583;BME280;32309;48.858;8.252;2023-03-03T04:22:39;100653.81;;;0.51;76.17
46583;BME280;32309;48.858;8.252;2023-03-03T04:24:40;100658.06;;;0.51;76.13
46583;BME280;32309;48.858;8.252;2023-03-03T04:26:40;100663.16;;;0.51;76.14
46583;BME280;32309;48.858;8.252;2023-03-03T04:28:41;100656.34;;;0.51;75.58
46583;BME280;32309;48.858;8.252;2023-03-03T04:30:41;100663.16;;;0.51;76.46
46583;BME280;32309;48.858;8.252;2023-03-03T04:32:41;100661.50;;;0.48;76.00
46583;BME280;32309;48.858;8.252;2023-03-03T04:34:42;100664.03;;;0.48;76.65
46583;BME280;32309;48.858;8.252;2023-03-03T04:36:42;100661.50;;;0.46;76.31
46583;BME280;32309;48.858;8.252;2023-03-03T04:38:43;100663.16;;;0.51;76.92
46583;BME280;32309;48.858;8.252;2023-03-03T04:40:43;100669.09;;;0.53;77.00
46583;BME280;32309;48.858;8.252;2023-03-03T04:42:44;100671.63;;;0.53;76.16
46583;BME280;32309;48.858;8.252;2023-03-03T04:44:44;100669.13;;;0.49;75.22
46583;BME280;32309;48.858;8.252;2023-03-03T04:46:44;100675.06;;;0.52;75.81
46583;BME280;32309;48.858;8.252;2023-03-03T04:48:45;100676.78;;;0.49;76.49
46583;BME280;32309;48.858;8.252;2023-03-03T04:50:45;100682.72;;;0.52;76.04
46583;BME280;32309;48.858;8.252;2023-03-03T04:52:51;100674.22;;;0.49;75.58
46583;BME280;32309;48.858;8.252;2023-03-03T04:54:53;100672.53;;;0.52;76.47
46583;BME280;32309;48.858;8.252;2023-03-03T04:56:53;100677.59;;;0.53;76.84
46583;BME280;32309;48.858;8.252;2023-03-03T04:58:54;100677.53;;;0.58;77.03
46583;BME280;32309;48.858;8.252;2023-03-03T05:00:55;100673.25;;;0.61;76.38
46583;BME280;32309;48.858;8.252;2023-03-03T05:02:56;100676.66;;;0.62;77.75
46583;BME280;32309;48.858;8.252;2023-03-03T05:04:56;100677.50;;;0.64;77.45
46583;BME280;32309;48.858;8.252;2023-03-03T05:06:57;100679.16;;;0.66;77.82
46583;BME280;32309;48.858;8.252;2023-03-03T05:08:57;100680.88;;;0.68;76.77
46583;BME280;32309;48.858;8.252;2023-03-03T05:10:57;100684.25;;;0.68;77.95
46583;BME280;32309;48.858;8.252;2023-03-03T05:12:58;100680.81;;;0.71;77.85
46583;BME280;32309;48.858;8.252;2023-03-03T05:14:59;100671.41;;;0.76;77.85
46583;BME280;32309;48.858;8.252;2023-03-03T05:17:01;100680.75;;;0.78;77.06
46583;BME280;32309;48.858;8.252;2023-03-03T05:19:02;100669.66;;;0.82;77.66
46583;BME280;32309;48.858;8.252;2023-03-03T05:21:02;100678.16;;;0.85;77.66
46583;BME280;32309;48.858;8.252;2023-03-03T05:23:03;100674.72;;;0.87;77.73
46583;BME280;32309;48.858;8.252;2023-03-03T05:25:04;100670.47;;;0.86;77.29
46583;BME280;32309;48.858;8.252;2023-03-03T05:27:04;100679.81;;;0.86;77.81
46583;BME280;32309;48.858;8.252;2023-03-03T05:29:05;100677.25;;;0.87;77.82
46583;BME280;32309;48.858;8.252;2023-03-03T05:31:06;100678.09;;;0.88;77.40
46583;BME280;32309;48.858;8.252;2023-03-03T05:33:07;100676.34;;;0.90;77.47
46583;BME280;32309;48.858;8.252;2023-03-03T05:35:07;100678.91;;;0.91;77.98
46583;BME280;32309;48.858;8.252;2023-03-03T05:37:08;100672.94;;;0.94;78.14
46583;BME280;32309;48.858;8.252;2023-03-03T05:39:08;100678.91;;;0.93;78.05
46583;BME280;32309;48.858;8.252;2023-03-03T05:41:08;100682.31;;;0.92;77.71
46583;BME280;32309;48.858;8.252;2023-03-03T05:43:09;100683.16;;;0.94;77.71
46583;BME280;32309;48.858;8.252;2023-03-03T05:45:09;100692.53;;;0.90;78.09
46583;BME280;32309;48.858;8.252;2023-03-03T05:47:10;100683.19;;;0.89;78.09
46583;BME280;32309;48.858;8.252;2023-03-03T05:49:10;100697.63;;;0.90;76.85
46583;BME280;32309;48.858;8.252;2023-03-03T05:51:11;100703.56;;;0.91;77.74
46583;BME280;32309;48.858;8.252;2023-03-03T05:53:11;100699.34;;;0.91;77.55
46583;BME280;32309;48.858;8.252;2023-03-03T05:55:11;100700.19;;;0.90;77.57
46583;BME280;32309;48.858;8.252;2023-03-03T05:57:12;100707.84;;;0.90;77.30
46583;BME280;32309;48.858;8.252;2023-03-03T05:59:12;100705.31;;;0.89;77.79
46583;BME280;32309;48.858;8.252;2023-03-03T06:01:12;100704.44;;;0.90;77.42
46583;BME280;32309;48.858;8.252;2023-03-03T06:03:23;100702.72;;;0.92;77.89
46583;BME280;32309;48.858;8.252;2023-03-03T06:05:23;100707.00;;;0.91;77.82
46583;BME280;32309;48.858;8.252;2023-03-03T06:07:24;100709.53;;;0.91;78.44
46583;BME280;32309;48.858;8.252;2023-03-03T06:09:24;100713.75;;;0.92;78.73
46583;BME280;32309;48.858;8.252;2023-03-03T06:11:25;100711.22;;;0.92;78.66
46583;BME280;32309;48.858;8.252;2023-03-03T06:13:25;100716.34;;;0.91;78.11
46583;BME280;32309;48.858;8.252;2023-03-03T06:15:26;100719.75;;;0.91;78.96
46583;BME280;32309;48.858;8.252;2023-03-03T06:17:26;100720.53;;;0.95;78.66
46583;BME280;32309;48.858;8.252;2023-03-03T06:19:26;100723.09;;;0.98;78.00
46583;BME280;32309;48.858;8.252;2023-03-03T06:21:27;100724.78;;;0.99;76.55
46583;BME280;32309;48.858;8.252;2023-03-03T06:23:27;100725.63;;;0.98;75.60
46583;BME280;32309;48.858;8.252;2023-03-03T06:25:27;100731.63;;;0.95;74.42
46583;BME280;32309;48.858;8.252;2023-03-03T06:27:28;100733.31;;;0.93;74.37
46583;BME280;32309;48.858;8.252;2023-03-03T06:29:28;100739.31;;;0.89;75.33
46583;BME280;32309;48.858;8.252;2023-03-03T06:31:28;100735.94;;;0.86;74.69
46583;BME280;32309;48.858;8.252;2023-03-03T06:33:29;100734.28;;;0.81;74.76
46583;BME280;32309;48.858;8.252;2023-03-03T06:35:29;100739.44;;;0.78;74.85
46583;BME280;32309;48.858;8.252;2023-03-03T06:37:29;100747.13;;;0.75;75.33
46583;BME280;32309;48.858;8.252;2023-03-03T06:39:29;100752.25;;;0.71;75.00
46583;BME280;32309;48.858;8.252;2023-03-03T06:41:30;100756.53;;;0.70;74.96
46583;BME280;32309;48.858;8.252;2023-03-03T06:43:30;100750.59;;;0.68;75.19
46583;BME280;32309;48.858;8.252;2023-03-03T06:45:30;100749.78;;;0.66;75.08
46583;BME280;32309;48.858;8.252;2023-03-03T06:47:31;100752.31;;;0.64;76.35
46583;BME280;32309;48.858;8.252;2023-03-03T06:49:32;100759.09;;;0.65;75.20
46583;BME280;32309;48.858;8.252;2023-03-03T06:51:34;100759.94;;;0.68;75.97
46583;BME280;32309;48.858;8.252;2023-03-03T06:53:38;100754.84;;;0.69;76.15
46583;BME280;32309;48.858;8.252;2023-03-03T06:55:39;100759.06;;;0.72;76.75
46583;BME280;32309;48.858;8.252;2023-03-03T06:57:43;100759.88;;;0.75;75.61
46583;BME280;32309;48.858;8.252;2023-03-03T06:59:43;100759.00;;;0.76;75.27
46583;BME280;32309;48.858;8.252;2023-03-03T07:01:46;100753.88;;;0.78;75.60
46583;BME280;32309;48.858;8.252;2023-03-03T07:03:47;100763.25;;;0.77;75.23
46583;BME280;32309;48.858;8.252;2023-03-03T07:05:48;100770.97;;;0.73;77.08
46583;BME280;32309;48.858;8.252;2023-03-03T07:07:48;100763.28;;;0.74;76.26
46583;BME280;32309;48.858;8.252;2023-03-03T07:09:53;100768.34;;;0.77;76.67
46583;BME280;32309;48.858;8.252;2023-03-03T07:11:56;100778.53;;;0.82;76.44
46583;BME280;32309;48.858;8.252;2023-03-03T07:14:01;100773.41;;;0.85;75.96
46583;BME280;32309;48.858;8.252;2023-03-03T07:16:02;100773.38;;;0.87;75.46
46583;BME280;32309;48.858;8.252;2023-03-03T07:18:20;100780.19;;;0.88;75.87
46583;BME280;32309;48.858;8.252;2023-03-03T07:20:43;100779.34;;;0.84;75.53
46583;BME280;32309;48.858;8.252;2023-03-03T07:22:42;100784.44;;;0.86;75.92
46583;BME280;32309;48.858;8.252;2023-03-03T07:24:49;100783.66;;;0.82;76.13
46583;BME280;32309;48.858;8.252;2023-03-03T07:26:51;100781.91;;;0.84;75.99
46583;BME280;32309;48.858;8.252;2023-03-03T07:29:13;100782.78;;;0.85;76.19
46583;BME280;32309;48.858;8.252;2023-03-03T07:31:24;100778.53;;;0.83;77.71
46583;BME280;32309;48.858;8.252;2023-03-03T07:33:56;100779.25;;;0.96;76.08
46583;BME280;32309;48.858;8.252;2023-03-03T07:35:58;100776.66;;;1.01;76.07
46583;BME280;32309;48.858;8.252;2023-03-03T07:38:00;100780.03;;;1.02;76.36
46583;BME280;32309;48.858;8.252;2023-03-03T07:40:04;100780.91;;;1.02;77.16
46583;BME280;32309;48.858;8.252;2023-03-03T07:42:39;100778.28;;;1.07;76.11
46583;BME280;32309;48.858;8.252;2023-03-03T07:44:41;100780.84;;;1.07;76.22
46583;BME280;32309;48.858;8.252;2023-03-03T07:46:42;100795.25;;;1.11;76.34
46583;BME280;32309;48.858;8.252;2023-03-03T07:48:44;100787.63;;;1.08;76.20
46583;BME280;32309;48.858;8.252;2023-03-03T07:50:44;100790.22;;;1.06;76.76
46583;BME280;32309;48.858;8.252;2023-03-03T07:52:55;100792.72;;;1.11;76.09
46583;BME280;32309;48.858;8.252;2023-03-03T07:55:01;100792.69;;;1.14;77.46
46583;BME280;32309;48.858;8.252;2023-03-03T07:57:26;100792.66;;;1.17;77.05
46583;BME280;32309;48.858;8.252;2023-03-03T07:59:48;100805.44;;;1.15;78.24
46583;BME280;32309;48.858;8.252;2023-03-03T08:01:50;100804.59;;;1.15;78.05
46583;BME280;32309;48.858;8.252;2023-03-03T08:03:57;100805.38;;;1.22;77.20
46583;BME280;32309;48.858;8.252;2023-03-03T08:05:57;100817.28;;;1.21;77.25
46583;BME280;32309;48.858;8.252;2023-03-03T08:10:25;100816.44;;;1.21;76.70
46583;BME280;32309;48.858;8.252;2023-03-03T08:12:37;100817.25;;;1.26;76.66
46583;BME280;32309;48.858;8.252;2023-03-03T08:14:41;100821.50;;;1.27;77.00
46583;BME280;32309;48.858;8.252;2023-03-03T08:16:42;100822.31;;;1.30;77.96
46583;BME280;32309;48.858;8.252;2023-03-03T08:18:46;100826.50;;;1.35;77.73
46583;BME280;32309;48.858;8.252;2023-03-03T08:20:49;100827.34;;;1.38;77.11
46583;BME280;32309;48.858;8.252;2023-03-03T08:22:51;100828.19;;;1.37;77.98
46583;BME280;32309;48.858;8.252;2023-03-03T08:24:51;100822.22;;;1.38;78.10
46583;BME280;32309;48.858;8.252;2023-03-03T08:26:52;100821.31;;;1.42;77.78
46583;BME280;32309;48.858;8.252;2023-03-03T08:28:52;100823.00;;;1.48;77.11
46583;BME280;32309;48.858;8.252;2023-03-03T08:30:53;100812.72;;;1.51;77.05
46583;BME280;32309;48.858;8.252;2023-03-03T08:32:53;100822.94;;;1.51;77.19
46583;BME280;32309;48.858;8.252;2023-03-03T08:34:54;100818.66;;;1.55;77.47
46583;BME280;32309;48.858;8.252;2023-03-03T08:36:54;100812.66;;;1.57;77.23
46583;BME280;32309;48.858;8.252;2023-03-03T08:38:57;100812.66;;;1.59;77.16
46583;BME280;32309;48.858;8.252;2023-03-03T08:40:57;100812.63;;;1.60;76.84
46583;BME280;32309;48.858;8.252;2023-03-03T08:42:58;100812.59;;;1.62;76.92
46583;BME280;32309;48.858;8.252;2023-03-03T08:44:58;100802.34;;;1.63;77.86
46583;BME280;32309;48.858;8.252;2023-03-03T08:46:58;100810.78;;;1.70;76.95
46583;BME280;32309;48.858;8.252;2023-03-03T08:48:59;100809.91;;;1.74;77.00
46583;BME280;32309;48.858;8.252;2023-03-03T08:50:59;100806.44;;;1.78;77.55
46583;BME280;32309;48.858;8.252;2023-03-03T08:52:59;100804.69;;;1.83;76.94
46583;BME280;32309;48.858;8.252;2023-03-03T08:55:00;100816.59;;;1.83;76.23
46583;BME280;32309;48.858;8.252;2023-03-03T08:57:00;100819.16;;;1.83;76.53
46583;BME280;32309;48.858;8.252;2023-03-03T08:59:00;100816.59;;;1.83;76.87
46583;BME280;32309;48.858;8.252;2023-03-03T09:01:01;100813.13;;;1.90;75.87
46583;BME280;32309;48.858;8.252;2023-03-03T09:03:01;100810.63;;;1.84;76.64
46583;BME280;32309;48.858;8.252;2023-03-03T09:05:02;100815.66;;;1.89;76.34
46583;BME280;32309;48.858;8.252;2023-03-03T09:07:03;100818.97;;;1.98;75.77
46583;BME280;32309;48.858;8.252;2023-03-03T09:09:03;100824.03;;;2.02;76.24
46583;BME280;32309;48.858;8.252;2023-03-03T09:11:13;100826.56;;;2.05;75.82
46583;BME280;32309;48.858;8.252;2023-03-03T09:13:18;100825.72;;;2.04;75.65
46583;BME280;32309;48.858;8.252;2023-03-03T09:17:25;100839.31;;;2.08;76.21
46583;BME280;32309;48.858;8.252;2023-03-03T09:19:31;100830.72;;;2.12;75.50
46583;BME280;32309;48.858;8.252;2023-03-03T09:21:32;100835.81;;;2.13;76.08
46583;BME280;32309;48.858;8.252;2023-03-03T09:25:35;100853.66;;;2.18;75.51
46583;BME280;32309;48.858;8.252;2023-03-03T09:27:36;100848.56;;;2.15;74.95
46583;BME280;32309;48.858;8.252;2023-03-03T09:29:36;100849.47;;;2.11;75.46
46583;BME280;32309;48.858;8.252;2023-03-03T09:31:38;100852.91;;;2.10;75.39
46583;BME280;32309;48.858;8.252;2023-03-03T09:33:40;100856.28;;;2.12;75.75
46583;BME280;32309;48.858;8.252;2023-03-03T09:35:41;100852.00;;;2.12;75.69
46583;BME280;32309;48.858;8.252;2023-03-03T09:37:41;100851.97;;;2.17;75.17
46583;BME280;32309;48.858;8.252;2023-03-03T09:39:43;100859.63;;;2.17;75.22
46583;BME280;32309;48.858;8.252;2023-03-03T09:46:28;100851.16;;;2.13;75.33
46583;BME280;32309;48.858;8.252;2023-03-03T09:48:51;100855.34;;;2.17;75.10
46583;BME280;32309;48.858;8.252;2023-03-03T09:51:12;100859.63;;;2.19;75.45
46583;BME280;32309;48.858;8.252;2023-03-03T10:02:42;100846.63;;;2.34;74.95
46583;BME280;32309;48.858;8.252;2023-03-03T10:04:57;100855.94;;;2.38;74.73
46583;BME280;32309;48.858;8.252;2023-03-03T10:07:35;100845.66;;;2.41;74.60
46583;BME280;32309;48.858;8.252;2023-03-03T10:12:03;100840.47;;;2.46;74.99
46583;BME280;32309;48.858;8.252;2023-03-03T10:14:08;100847.25;;;2.50;74.69
46583;BME280;32309;48.858;8.252;2023-03-03T10:16:36;100843.78;;;2.53;74.84
46583;BME280;32309;48.858;8.252;2023-03-03T10:19:00;100851.34;;;2.60;74.76
46583;BME280;32309;48.858;8.252;2023-03-03T10:21:08;100854.59;;;2.72;74.29
46583;BME280;32309;48.858;8.252;2023-03-03T10:23:14;100856.19;;;2.79;73.64
46583;BME280;32309;48.858;8.252;2023-03-03T10:25:40;100850.97;;;2.83;73.32
46583;BME280;32309;48.858;8.252;2023-03-03T10:32:29;100852.63;;;2.88;73.20
46583;BME280;32309;48.858;8.252;2023-03-03T10:52:48;100839.47;;;3.58;70.10
46583;BME280;32309;48.858;8.252;2023-03-03T10:55:17;100839.75;;;3.86;68.80
46583;BME280;32309;48.858;8.252;2023-03-03T11:07:20;100839.06;;;4.56;66.40
46583;BME280;32309;48.858;8.252;2023-03-03T11:11:35;100824.13;;;4.72;65.31
46583;BME280;32309;48.858;8.252;2023-03-03T11:20:56;100816.97;;;4.85;65.33
46583;BME280;32309;48.858;8.252;2023-03-03T11:28:05;100820.03;;;5.32;63.17
46583;BME280;32309;48.858;8.252;2023-03-03T11:30:17;100825.66;;;5.47;62.65
46583;BME280;32309;48.858;8.252;2023-03-03T11:36:56;100820.44;;;5.80;61.52
46583;BME280;32309;48.858;8.252;2023-03-03T11:39:06;100822.09;;;5.82;61.19
46583;BME280;32309;48.858;8.252;2023-03-03T11:43:31;100826.72;;;6.01;58.21
46583;BME280;32309;48.858;8.252;2023-03-03T11:45:52;100824.88;;;6.06;58.08
46583;BME280;32309;48.858;8.252;2023-03-03T11:48:00;100812.06;;;6.05;57.59
46583;BME280;32309;48.858;8.252;2023-03-03T11:50:07;100810.31;;;6.05;57.83
46583;BME280;32309;48.858;8.252;2023-03-03T11:54:31;100796.50;;;6.08;58.77
46583;BME280;32309;48.858;8.252;2023-03-03T11:56:44;100798.25;;;6.07;59.69
46583;BME280;32309;48.858;8.252;2023-03-03T12:03:40;100782.47;;;6.18;59.15
46583;BME280;32309;48.858;8.252;2023-03-03T12:08:23;100772.66;;;6.29;57.99
46583;BME280;32309;48.858;8.252;2023-03-03T12:10:37;100777.69;;;6.34;58.47
46583;BME280;32309;48.858;8.252;2023-03-03T12:13:03;100767.19;;;6.40;58.53
46583;BME280;32309;48.858;8.252;2023-03-03T12:24:34;100763.81;;;6.65;56.49
46583;BME280;32309;48.858;8.252;2023-03-03T12:26:59;100761.28;;;6.63;57.06
46583;BME280;32309;48.858;8.252;2023-03-03T12:32:00;100759.16;;;6.76;56.65
46583;BME280;32309;48.858;8.252;2023-03-03T12:34:25;100755.44;;;6.83;56.28
46583;BME280;32309;48.858;8.252;2023-03-03T12:39:11;100757.06;;;6.88;57.00
46583;BME280;32309;48.858;8.252;2023-03-03T12:43:43;100753.50;;;7.15;54.38
46583;BME280;32309;48.858;8.252;2023-03-03T12:48:20;100749.69;;;7.02;55.05
46583;BME280;32309;48.858;8.252;2023-03-03T12:52:45;100738.78;;;6.94;55.54